Weather History for K4M9 - January, 2013

Change the Weather History Date:

Saturday, January 19, 2013

  Actual Average (KARG) Record (KARG)
Temperature  
Mean Temperature 46 °F -  
Max Temperature 55 °F 42 °F 64 °F (2015)
Min Temperature 37 °F 27 °F 17 °F (2004)
Degree Days  
Heating Degree Days 19    
Moisture  
Dew Point 36 °F    
Average Humidity 71    
Maximum Humidity 87    
Minimum Humidity 58    
Precipitation  
Precipitation 0.00 in - - ()
Sea Level Pressure  
Sea Level Pressure 30.19 in    
Wind  
Wind Speed 16 mph (SSW)    
Max Wind Speed 24 mph    
Max Gust Speed 32 mph    
Visibility 10 miles    
Events      
Averages and records for this station are not official NWS values.
T = Trace of Precipitation, MM = Missing Value Source: NWS Daily Summary

Daily Weather History Graph

Daily Weather History Graph

Search for Another Location

Airport or City:

Trip Planner

Search our weather history database for the weather conditions in past years. The results will help you decide how hot, cold, wet, or windy it might be!

Date:

Astronomy

Jan. 19, 2013 Rise Set
Actual Time 7:11 AM CST 5:15 PM CST
Civil Twilight 6:44 AM CST 5:43 PM CST
Nautical Twilight 6:12 AM CST 6:14 PM CST
Astronomical Twilight 5:41 AM CST 6:45 PM CST
Moon 11:39 AM CST (1/19) 12:48 AM CST (1/19)
Length of Visible Light 10h 59m
Length of Day
10h 03m
First Quarter, 57% of the Moon is Illuminated
Jan 19
First Quarter
Jan 26
Full
Feb 3
Last Quarter
Feb 10
New
Feb 17
First Quarter

Hourly Weather History & Observations

Time (CST) Temp. Windchill Dew Point Humidity Pressure Visibility Wind Dir Wind Speed Gust Speed Precip Events Conditions
12:15 AM 37.4 °F 28.5 °F 32.0 °F 81% 30.29 in 10.0 mi SSW 15.0 mph 18.4 mph N/A   Clear
12:35 AM 39.2 °F 30.8 °F 32.0 °F 75% 30.28 in 10.0 mi SSW 15.0 mph 19.6 mph N/A   Clear
12:55 AM 39.2 °F 29.8 °F 32.0 °F 75% 30.28 in 10.0 mi SSW 18.4 mph 23.0 mph N/A   Clear
1:15 AM 39.2 °F 30.8 °F 32.0 °F 75% 30.28 in 10.0 mi SSW 15.0 mph - N/A   Clear
1:35 AM 39.2 °F 31.6 °F 32.0 °F 75% 30.28 in 10.0 mi SW 12.7 mph 20.7 mph N/A   Clear
1:55 AM 39.2 °F 30.8 °F 32.0 °F 75% 30.28 in 10.0 mi SSW 15.0 mph - N/A   Clear
2:15 AM 39.2 °F 30.8 °F 32.0 °F 75% 30.29 in 10.0 mi SSW 15.0 mph - N/A   Clear
2:35 AM 39.2 °F 31.6 °F 32.0 °F 75% 30.28 in 10.0 mi SSW 12.7 mph - N/A   Clear
2:55 AM 37.4 °F 28.5 °F 32.0 °F 81% 30.27 in 10.0 mi SSW 15.0 mph - N/A   Clear
3:15 AM 37.4 °F 28.5 °F 32.0 °F 81% 30.27 in 10.0 mi SSW 15.0 mph 21.9 mph N/A   Clear
3:35 AM 37.4 °F 28.5 °F 32.0 °F 81% 30.26 in 10.0 mi SSW 15.0 mph - N/A   Clear
3:55 AM 37.4 °F 28.9 °F 32.0 °F 81% 30.26 in 10.0 mi SSW 13.8 mph - N/A   Clear
4:15 AM 37.4 °F 29.3 °F 32.0 °F 81% 30.26 in 10.0 mi SSW 12.7 mph - N/A   Clear
4:35 AM 37.4 °F 29.8 °F 32.0 °F 81% 30.26 in 10.0 mi SSW 11.5 mph - N/A   Clear
4:55 AM 37.4 °F 29.3 °F 32.0 °F 81% 30.25 in 10.0 mi SSW 12.7 mph - N/A   Clear
5:15 AM 37.4 °F 28.9 °F 32.0 °F 81% 30.25 in 10.0 mi SSW 13.8 mph - N/A   Clear
5:35 AM 37.4 °F 27.8 °F 32.0 °F 81% 30.25 in 10.0 mi SSW 17.3 mph - N/A   Clear
6:35 AM 37.4 °F 28.2 °F 32.0 °F 81% 30.25 in 10.0 mi SSW 16.1 mph - N/A   Clear
6:55 AM 37.4 °F 28.5 °F 32.0 °F 81% 30.25 in 10.0 mi SSW 15.0 mph - N/A   Clear
7:15 AM 37.4 °F 28.5 °F 32.0 °F 81% 30.24 in 10.0 mi SSW 15.0 mph 19.6 mph N/A   Clear
7:55 AM 37.4 °F 27.8 °F 32.0 °F 81% 30.24 in 10.0 mi SSW 17.3 mph - N/A   Clear
8:15 AM 39.2 °F 30.2 °F 32.0 °F 75% 30.25 in 10.0 mi SSW 17.3 mph - N/A   Clear
8:35 AM 39.2 °F 31.2 °F 32.0 °F 75% 30.25 in 10.0 mi SSW 13.8 mph - N/A   Clear
9:35 AM 42.8 °F 34.8 °F 32.0 °F 66% 30.26 in 10.0 mi SSW 17.3 mph - N/A   Clear
9:55 AM 44.6 °F 36.9 °F 33.8 °F 66% 30.26 in 10.0 mi SSW 18.4 mph - N/A   Clear
10:15 AM 44.6 °F 37.2 °F 35.6 °F 71% 30.25 in 10.0 mi SSW 17.3 mph - N/A   Clear
10:35 AM 46.4 °F 39.5 °F 33.8 °F 62% 30.24 in 10.0 mi SSW 17.3 mph - N/A   Clear
10:55 AM 46.4 °F 39.8 °F 35.6 °F 66% 30.22 in 9.0 mi SSW 16.1 mph - N/A   Clear
11:15 AM 48.2 °F - 35.6 °F 62% 30.21 in 10.0 mi SW 20.7 mph 24.2 mph N/A   Clear
11:55 AM 48.2 °F - 37.4 °F 66% 30.18 in 10.0 mi SW 16.1 mph 23.0 mph N/A   Clear
12:15 PM 50.0 °F - 37.4 °F 62% 30.17 in 10.0 mi SW 15.0 mph - N/A   Clear
12:55 PM 51.8 °F - 39.2 °F 62% 30.15 in 10.0 mi SSW 18.4 mph - N/A   Clear
1:15 PM 53.6 °F - 39.2 °F 58% 30.13 in 10.0 mi SSW 20.7 mph - N/A   Clear
1:35 PM 53.6 °F - 41.0 °F 62% 30.12 in 10.0 mi SSW 16.1 mph 21.9 mph N/A   Clear
1:55 PM 55.4 °F - 41.0 °F 58% 30.12 in 10.0 mi SSW 18.4 mph - N/A   Clear
2:15 PM 55.4 °F - 41.0 °F 58% 30.11 in 10.0 mi SSW 17.3 mph - N/A   Clear
2:35 PM 55.4 °F - 41.0 °F 58% 30.10 in 10.0 mi SSW 24.2 mph 27.6 mph N/A   Clear
2:55 PM 55.4 °F - 41.0 °F 58% 30.10 in 10.0 mi SSW 20.7 mph 28.8 mph N/A   Clear
3:15 PM 55.4 °F - 41.0 °F 58% 30.09 in 10.0 mi South 18.4 mph 27.6 mph N/A   Clear
3:35 PM 55.4 °F - 41.0 °F 58% 30.10 in 10.0 mi SSW 21.9 mph 28.8 mph N/A   Clear
3:55 PM 55.4 °F - 41.0 °F 58% 30.09 in 10.0 mi SSW 21.9 mph 27.6 mph N/A   Clear
4:15 PM 53.6 °F - 41.0 °F 62% 30.09 in 10.0 mi SSW 21.9 mph 29.9 mph N/A   Clear
4:35 PM 53.6 °F - 41.0 °F 62% 30.09 in 10.0 mi SSW 23.0 mph 32.2 mph N/A   Clear
4:55 PM 51.8 °F - 39.2 °F 62% 30.10 in 9.0 mi SSW 23.0 mph 28.8 mph N/A   Clear
5:15 PM 50.0 °F - 39.2 °F 66% 30.10 in 10.0 mi SSW 21.9 mph 27.6 mph N/A   Clear
5:35 PM 50.0 °F - 39.2 °F 66% 30.10 in 10.0 mi SSW 20.7 mph 26.5 mph N/A   Clear
5:55 PM 50.0 °F - 39.2 °F 66% 30.10 in 10.0 mi SSW 18.4 mph 27.6 mph N/A   Clear
6:15 PM 48.2 °F - 39.2 °F 71% 30.11 in 10.0 mi SSW 18.4 mph - N/A   Clear
6:35 PM 48.2 °F - 39.2 °F 71% 30.12 in 10.0 mi SSW 17.3 mph 24.2 mph N/A   Clear
6:55 PM 48.2 °F - 39.2 °F 71% 30.12 in 10.0 mi SSW 20.7 mph - N/A   Clear
7:15 PM 48.2 °F - 39.2 °F 71% 30.13 in 10.0 mi SSW 18.4 mph - N/A   Clear
7:35 PM 48.2 °F - 37.4 °F 66% 30.13 in 10.0 mi SSW 16.1 mph - N/A   Clear
7:55 PM 48.2 °F - 37.4 °F 66% 30.14 in 10.0 mi SSW 18.4 mph - N/A   Clear
8:15 PM 48.2 °F - 37.4 °F 66% 30.15 in 10.0 mi SSW 17.3 mph - N/A   Clear
8:35 PM 48.2 °F - 37.4 °F 66% 30.15 in 10.0 mi SSW 15.0 mph 19.6 mph N/A   Clear
8:55 PM 46.4 °F 40.7 °F 37.4 °F 71% 30.15 in 10.0 mi SSW 12.7 mph - N/A   Clear
9:15 PM 46.4 °F 40.1 °F 37.4 °F 71% 30.15 in 10.0 mi SSW 15.0 mph - N/A   Clear
9:35 PM 46.4 °F 40.1 °F 37.4 °F 71% 30.16 in 10.0 mi SW 15.0 mph - N/A   Clear
9:55 PM 46.4 °F 40.4 °F 37.4 °F 71% 30.16 in 10.0 mi SW 13.8 mph 20.7 mph N/A   Clear
10:15 PM 44.6 °F 38.4 °F 37.4 °F 76% 30.16 in 10.0 mi SW 12.7 mph - N/A   Clear
10:35 PM 44.6 °F 38.1 °F 37.4 °F 76% 30.16 in 10.0 mi SW 13.8 mph - N/A   Clear
10:55 PM 44.6 °F 38.1 °F 37.4 °F 76% 30.16 in 10.0 mi SW 13.8 mph - N/A   Clear
11:15 PM 42.8 °F 36.6 °F 37.4 °F 81% 30.17 in 10.0 mi SW 11.5 mph - N/A   Clear
11:35 PM 41.0 °F 35.8 °F 37.4 °F 87% 30.17 in 10.0 mi WSW 8.1 mph - N/A   Clear
11:55 PM 39.2 °F 35.0 °F 35.6 °F 87% 30.17 in 10.0 mi WSW 5.8 mph - N/A   Clear